sensor_id;sensor_type;location;lat;lon;timestamp;P1;durP1;ratioP1;P2;durP2;ratioP2
29954;SDS011;68448;51.188;6.868;2024-02-16T00:01:56;2.00;;;1.80;;
29954;SDS011;68448;51.188;6.868;2024-02-16T00:04:23;2.43;;;1.77;;
29954;SDS011;68448;51.188;6.868;2024-02-16T00:06:51;5.40;;;2.67;;
29954;SDS011;68448;51.188;6.868;2024-02-16T00:09:18;4.47;;;2.27;;
29954;SDS011;68448;51.188;6.868;2024-02-16T00:11:46;2.77;;;1.90;;
29954;SDS011;68448;51.188;6.868;2024-02-16T00:14:14;3.23;;;1.90;;
29954;SDS011;68448;51.188;6.868;2024-02-16T00:16:41;5.50;;;2.57;;
29954;SDS011;68448;51.188;6.868;2024-02-16T00:19:08;3.83;;;2.07;;
29954;SDS011;68448;51.188;6.868;2024-02-16T00:21:35;2.80;;;1.80;;
29954;SDS011;68448;51.188;6.868;2024-02-16T00:24:03;5.17;;;2.10;;
29954;SDS011;68448;51.188;6.868;2024-02-16T00:26:30;3.73;;;2.10;;
29954;SDS011;68448;51.188;6.868;2024-02-16T00:28:59;2.80;;;2.37;;
29954;SDS011;68448;51.188;6.868;2024-02-16T00:31:29;5.03;;;2.00;;
29954;SDS011;68448;51.188;6.868;2024-02-16T00:33:56;3.17;;;2.43;;
29954;SDS011;68448;51.188;6.868;2024-02-16T00:36:23;3.50;;;1.87;;
29954;SDS011;68448;51.188;6.868;2024-02-16T00:38:50;4.10;;;2.33;;
29954;SDS011;68448;51.188;6.868;2024-02-16T00:41:18;2.33;;;2.03;;
29954;SDS011;68448;51.188;6.868;2024-02-16T00:43:45;2.23;;;1.83;;
29954;SDS011;68448;51.188;6.868;2024-02-16T00:46:14;3.23;;;2.00;;
29954;SDS011;68448;51.188;6.868;2024-02-16T00:48:41;4.70;;;2.87;;
29954;SDS011;68448;51.188;6.868;2024-02-16T00:51:08;3.07;;;2.33;;
29954;SDS011;68448;51.188;6.868;2024-02-16T00:53:36;3.10;;;1.80;;
29954;SDS011;68448;51.188;6.868;2024-02-16T00:56:03;3.10;;;1.90;;
29954;SDS011;68448;51.188;6.868;2024-02-16T00:58:30;4.47;;;2.03;;
29954;SDS011;68448;51.188;6.868;2024-02-16T01:00:57;4.50;;;1.80;;
29954;SDS011;68448;51.188;6.868;2024-02-16T01:03:27;2.83;;;2.17;;
29954;SDS011;68448;51.188;6.868;2024-02-16T01:05:54;4.07;;;2.40;;
29954;SDS011;68448;51.188;6.868;2024-02-16T01:08:21;1.80;;;1.70;;
29954;SDS011;68448;51.188;6.868;2024-02-16T01:10:48;5.30;;;2.43;;
29954;SDS011;68448;51.188;6.868;2024-02-16T01:13:15;3.73;;;3.37;;
29954;SDS011;68448;51.188;6.868;2024-02-16T01:15:42;5.50;;;2.33;;
29954;SDS011;68448;51.188;6.868;2024-02-16T01:18:10;3.43;;;2.27;;
29954;SDS011;68448;51.188;6.868;2024-02-16T01:20:39;4.80;;;1.93;;
29954;SDS011;68448;51.188;6.868;2024-02-16T01:23:07;5.50;;;2.70;;
29954;SDS011;68448;51.188;6.868;2024-02-16T01:25:34;4.60;;;2.30;;
29954;SDS011;68448;51.188;6.868;2024-02-16T01:28:01;2.83;;;2.07;;
29954;SDS011;68448;51.188;6.868;2024-02-16T01:30:28;3.40;;;2.07;;
29954;SDS011;68448;51.188;6.868;2024-02-16T01:32:55;2.93;;;2.00;;
29954;SDS011;68448;51.188;6.868;2024-02-16T01:35:22;4.73;;;2.00;;
29954;SDS011;68448;51.188;6.868;2024-02-16T01:37:51;2.87;;;1.97;;
29954;SDS011;68448;51.188;6.868;2024-02-16T01:40:18;2.97;;;2.27;;
29954;SDS011;68448;51.188;6.868;2024-02-16T01:42:46;3.87;;;2.33;;
29954;SDS011;68448;51.188;6.868;2024-02-16T01:45:13;3.53;;;2.77;;
29954;SDS011;68448;51.188;6.868;2024-02-16T01:47:41;2.50;;;1.80;;
29954;SDS011;68448;51.188;6.868;2024-02-16T01:50:09;2.07;;;1.87;;
29954;SDS011;68448;51.188;6.868;2024-02-16T01:52:37;2.80;;;1.80;;
29954;SDS011;68448;51.188;6.868;2024-02-16T01:55:06;5.73;;;2.80;;
29954;SDS011;68448;51.188;6.868;2024-02-16T01:57:33;3.93;;;2.07;;
29954;SDS011;68448;51.188;6.868;2024-02-16T02:00:01;3.57;;;2.07;;
29954;SDS011;68448;51.188;6.868;2024-02-16T02:02:30;3.43;;;1.90;;
29954;SDS011;68448;51.188;6.868;2024-02-16T02:04:57;4.10;;;2.47;;
29954;SDS011;68448;51.188;6.868;2024-02-16T02:07:25;3.93;;;1.87;;
29954;SDS011;68448;51.188;6.868;2024-02-16T02:09:52;1.93;;;1.73;;
29954;SDS011;68448;51.188;6.868;2024-02-16T02:12:21;2.63;;;1.80;;
29954;SDS011;68448;51.188;6.868;2024-02-16T02:14:49;3.53;;;2.00;;
29954;SDS011;68448;51.188;6.868;2024-02-16T02:17:16;4.37;;;2.20;;
29954;SDS011;68448;51.188;6.868;2024-02-16T02:19:43;4.50;;;1.60;;
29954;SDS011;68448;51.188;6.868;2024-02-16T02:22:13;3.00;;;2.07;;
29954;SDS011;68448;51.188;6.868;2024-02-16T02:24:41;3.90;;;1.80;;
29954;SDS011;68448;51.188;6.868;2024-02-16T02:27:08;2.73;;;1.90;;
29954;SDS011;68448;51.188;6.868;2024-02-16T02:29:35;6.93;;;2.17;;
29954;SDS011;68448;51.188;6.868;2024-02-16T02:32:02;2.40;;;2.20;;
29954;SDS011;68448;51.188;6.868;2024-02-16T02:34:30;3.83;;;2.03;;
29954;SDS011;68448;51.188;6.868;2024-02-16T02:36:57;2.80;;;1.60;;
29954;SDS011;68448;51.188;6.868;2024-02-16T02:39:25;10.70;;;1.77;;
29954;SDS011;68448;51.188;6.868;2024-02-16T02:41:53;2.03;;;1.80;;
29954;SDS011;68448;51.188;6.868;2024-02-16T02:44:20;2.43;;;2.13;;
29954;SDS011;68448;51.188;6.868;2024-02-16T02:46:48;7.60;;;2.30;;
29954;SDS011;68448;51.188;6.868;2024-02-16T02:49:15;4.83;;;2.57;;
29954;SDS011;68448;51.188;6.868;2024-02-16T02:51:42;3.83;;;2.40;;
29954;SDS011;68448;51.188;6.868;2024-02-16T02:54:10;4.40;;;1.80;;
29954;SDS011;68448;51.188;6.868;2024-02-16T02:56:38;4.70;;;2.00;;
29954;SDS011;68448;51.188;6.868;2024-02-16T02:59:06;5.07;;;2.10;;
29954;SDS011;68448;51.188;6.868;2024-02-16T03:01:35;4.23;;;1.90;;
29954;SDS011;68448;51.188;6.868;2024-02-16T03:04:02;6.10;;;2.77;;
29954;SDS011;68448;51.188;6.868;2024-02-16T03:06:29;3.40;;;2.13;;
29954;SDS011;68448;51.188;6.868;2024-02-16T03:08:57;5.60;;;2.30;;
29954;SDS011;68448;51.188;6.868;2024-02-16T03:11:24;2.90;;;2.20;;
29954;SDS011;68448;51.188;6.868;2024-02-16T03:13:52;4.13;;;2.37;;
29954;SDS011;68448;51.188;6.868;2024-02-16T03:16:20;2.77;;;2.20;;
29954;SDS011;68448;51.188;6.868;2024-02-16T03:18:47;4.47;;;2.00;;
29954;SDS011;68448;51.188;6.868;2024-02-16T03:21:14;4.10;;;2.40;;
29954;SDS011;68448;51.188;6.868;2024-02-16T03:23:41;3.10;;;2.10;;
29954;SDS011;68448;51.188;6.868;2024-02-16T03:26:13;3.57;;;2.20;;
29954;SDS011;68448;51.188;6.868;2024-02-16T03:28:40;3.43;;;2.40;;
29954;SDS011;68448;51.188;6.868;2024-02-16T03:31:14;4.50;;;2.53;;
29954;SDS011;68448;51.188;6.868;2024-02-16T03:33:41;3.43;;;1.90;;
29954;SDS011;68448;51.188;6.868;2024-02-16T03:36:09;3.20;;;2.60;;
29954;SDS011;68448;51.188;6.868;2024-02-16T03:38:36;4.10;;;2.37;;
29954;SDS011;68448;51.188;6.868;2024-02-16T03:41:03;3.30;;;2.10;;
29954;SDS011;68448;51.188;6.868;2024-02-16T03:43:30;2.10;;;1.90;;
29954;SDS011;68448;51.188;6.868;2024-02-16T03:45:58;3.80;;;3.00;;
29954;SDS011;68448;51.188;6.868;2024-02-16T03:48:27;2.43;;;2.20;;
29954;SDS011;68448;51.188;6.868;2024-02-16T03:50:54;3.33;;;1.80;;
29954;SDS011;68448;51.188;6.868;2024-02-16T03:53:21;4.93;;;2.47;;
29954;SDS011;68448;51.188;6.868;2024-02-16T03:55:48;4.97;;;2.20;;
29954;SDS011;68448;51.188;6.868;2024-02-16T03:58:16;6.10;;;2.50;;
29954;SDS011;68448;51.188;6.868;2024-02-16T04:00:43;5.37;;;2.43;;
29954;SDS011;68448;51.188;6.868;2024-02-16T04:03:10;2.40;;;1.83;;
29954;SDS011;68448;51.188;6.868;2024-02-16T04:05:39;5.27;;;2.47;;
29954;SDS011;68448;51.188;6.868;2024-02-16T04:08:06;4.10;;;1.90;;
29954;SDS011;68448;51.188;6.868;2024-02-16T04:10:33;3.93;;;2.10;;
29954;SDS011;68448;51.188;6.868;2024-02-16T04:13:01;5.80;;;2.53;;
29954;SDS011;68448;51.188;6.868;2024-02-16T04:15:28;4.50;;;2.13;;
29954;SDS011;68448;51.188;6.868;2024-02-16T04:17:55;4.50;;;2.30;;
29954;SDS011;68448;51.188;6.868;2024-02-16T04:20:23;2.50;;;1.50;;
29954;SDS011;68448;51.188;6.868;2024-02-16T04:22:51;3.17;;;2.43;;
29954;SDS011;68448;51.188;6.868;2024-02-16T04:25:18;5.10;;;2.23;;
29954;SDS011;68448;51.188;6.868;2024-02-16T04:27:46;4.33;;;2.30;;
29954;SDS011;68448;51.188;6.868;2024-02-16T04:30:13;3.43;;;2.37;;
29954;SDS011;68448;51.188;6.868;2024-02-16T04:32:40;5.40;;;1.87;;
29954;SDS011;68448;51.188;6.868;2024-02-16T04:35:07;2.60;;;2.30;;
29954;SDS011;68448;51.188;6.868;2024-02-16T04:37:35;3.80;;;2.10;;
29954;SDS011;68448;51.188;6.868;2024-02-16T04:40:04;2.67;;;2.00;;
29954;SDS011;68448;51.188;6.868;2024-02-16T04:42:31;4.07;;;2.20;;
29954;SDS011;68448;51.188;6.868;2024-02-16T04:44:58;5.60;;;2.60;;
29954;SDS011;68448;51.188;6.868;2024-02-16T04:47:31;9.17;;;3.07;;
29954;SDS011;68448;51.188;6.868;2024-02-16T04:49:59;5.30;;;2.60;;
29954;SDS011;68448;51.188;6.868;2024-02-16T04:52:26;4.30;;;2.57;;
29954;SDS011;68448;51.188;6.868;2024-02-16T04:54:56;3.50;;;2.40;;
29954;SDS011;68448;51.188;6.868;2024-02-16T04:57:26;6.33;;;2.67;;
29954;SDS011;68448;51.188;6.868;2024-02-16T04:59:53;2.37;;;1.73;;
29954;SDS011;68448;51.188;6.868;2024-02-16T05:02:21;5.37;;;2.73;;
29954;SDS011;68448;51.188;6.868;2024-02-16T05:04:48;5.07;;;3.23;;
29954;SDS011;68448;51.188;6.868;2024-02-16T05:07:15;7.30;;;3.67;;
29954;SDS011;68448;51.188;6.868;2024-02-16T05:09:42;4.93;;;2.30;;
29954;SDS011;68448;51.188;6.868;2024-02-16T05:12:09;4.53;;;2.80;;
29954;SDS011;68448;51.188;6.868;2024-02-16T05:14:38;7.33;;;2.63;;
29954;SDS011;68448;51.188;6.868;2024-02-16T05:17:05;3.67;;;2.47;;
29954;SDS011;68448;51.188;6.868;2024-02-16T05:19:32;3.97;;;2.53;;
29954;SDS011;68448;51.188;6.868;2024-02-16T05:21:59;5.00;;;2.47;;
29954;SDS011;68448;51.188;6.868;2024-02-16T05:24:26;5.40;;;2.10;;
29954;SDS011;68448;51.188;6.868;2024-02-16T05:26:54;5.80;;;2.03;;
29954;SDS011;68448;51.188;6.868;2024-02-16T05:29:21;3.23;;;2.07;;
29954;SDS011;68448;51.188;6.868;2024-02-16T05:31:51;3.33;;;2.17;;
29954;SDS011;68448;51.188;6.868;2024-02-16T05:34:19;4.00;;;2.67;;
29954;SDS011;68448;51.188;6.868;2024-02-16T05:36:46;6.63;;;2.77;;
29954;SDS011;68448;51.188;6.868;2024-02-16T05:39:13;3.33;;;2.57;;
29954;SDS011;68448;51.188;6.868;2024-02-16T05:41:40;4.50;;;2.70;;
29954;SDS011;68448;51.188;6.868;2024-02-16T05:44:08;4.87;;;2.43;;
29954;SDS011;68448;51.188;6.868;2024-02-16T05:46:35;3.10;;;2.70;;
29954;SDS011;68448;51.188;6.868;2024-02-16T05:49:04;4.70;;;2.60;;
29954;SDS011;68448;51.188;6.868;2024-02-16T05:51:34;3.20;;;2.60;;
29954;SDS011;68448;51.188;6.868;2024-02-16T05:54:01;4.37;;;2.90;;
29954;SDS011;68448;51.188;6.868;2024-02-16T05:56:28;3.67;;;2.70;;
29954;SDS011;68448;51.188;6.868;2024-02-16T05:58:55;2.87;;;2.50;;
29954;SDS011;68448;51.188;6.868;2024-02-16T06:01:22;3.60;;;2.70;;
29954;SDS011;68448;51.188;6.868;2024-02-16T06:03:50;5.33;;;2.93;;
29954;SDS011;68448;51.188;6.868;2024-02-16T06:06:18;4.50;;;2.80;;
29954;SDS011;68448;51.188;6.868;2024-02-16T06:08:45;5.33;;;2.87;;
29954;SDS011;68448;51.188;6.868;2024-02-16T06:11:13;3.07;;;2.40;;
29954;SDS011;68448;51.188;6.868;2024-02-16T06:13:40;3.90;;;3.23;;
29954;SDS011;68448;51.188;6.868;2024-02-16T06:16:07;4.47;;;2.80;;
29954;SDS011;68448;51.188;6.868;2024-02-16T06:18:35;5.57;;;3.10;;
29954;SDS011;68448;51.188;6.868;2024-02-16T06:21:02;6.03;;;2.67;;
29954;SDS011;68448;51.188;6.868;2024-02-16T06:23:31;4.37;;;3.00;;
29954;SDS011;68448;51.188;6.868;2024-02-16T06:25:58;3.40;;;2.17;;
29954;SDS011;68448;51.188;6.868;2024-02-16T06:28:25;4.80;;;2.83;;
29954;SDS011;68448;51.188;6.868;2024-02-16T06:30:52;7.17;;;3.33;;
29954;SDS011;68448;51.188;6.868;2024-02-16T06:33:20;6.93;;;3.70;;
29954;SDS011;68448;51.188;6.868;2024-02-16T06:35:47;4.50;;;2.63;;
29954;SDS011;68448;51.188;6.868;2024-02-16T06:38:14;3.83;;;2.87;;
29954;SDS011;68448;51.188;6.868;2024-02-16T06:40:43;3.50;;;2.57;;
29954;SDS011;68448;51.188;6.868;2024-02-16T06:43:10;5.10;;;2.70;;
29954;SDS011;68448;51.188;6.868;2024-02-16T06:45:37;6.20;;;2.50;;
29954;SDS011;68448;51.188;6.868;2024-02-16T06:48:05;4.93;;;2.87;;
29954;SDS011;68448;51.188;6.868;2024-02-16T06:50:33;9.57;;;3.20;;
29954;SDS011;68448;51.188;6.868;2024-02-16T06:53:00;6.13;;;3.40;;
29954;SDS011;68448;51.188;6.868;2024-02-16T06:55:27;4.90;;;2.87;;
29954;SDS011;68448;51.188;6.868;2024-02-16T06:57:55;4.87;;;3.30;;
29954;SDS011;68448;51.188;6.868;2024-02-16T07:00:22;6.43;;;2.73;;
29954;SDS011;68448;51.188;6.868;2024-02-16T07:02:50;4.20;;;3.00;;
29954;SDS011;68448;51.188;6.868;2024-02-16T07:05:17;5.73;;;3.17;;
29954;SDS011;68448;51.188;6.868;2024-02-16T07:07:44;4.03;;;2.93;;
29954;SDS011;68448;51.188;6.868;2024-02-16T07:10:11;5.43;;;2.87;;
29954;SDS011;68448;51.188;6.868;2024-02-16T07:12:39;7.93;;;4.63;;
29954;SDS011;68448;51.188;6.868;2024-02-16T07:15:08;4.90;;;2.50;;
29954;SDS011;68448;51.188;6.868;2024-02-16T07:17:35;4.20;;;3.80;;
29954;SDS011;68448;51.188;6.868;2024-02-16T07:20:02;8.13;;;3.03;;
29954;SDS011;68448;51.188;6.868;2024-02-16T07:22:30;5.57;;;2.70;;
29954;SDS011;68448;51.188;6.868;2024-02-16T07:24:57;6.20;;;2.60;;
29954;SDS011;68448;51.188;6.868;2024-02-16T07:27:25;7.20;;;3.10;;
29954;SDS011;68448;51.188;6.868;2024-02-16T07:29:52;3.63;;;2.63;;
29954;SDS011;68448;51.188;6.868;2024-02-16T07:32:21;4.03;;;2.97;;
29954;SDS011;68448;51.188;6.868;2024-02-16T07:34:48;4.23;;;3.13;;
29954;SDS011;68448;51.188;6.868;2024-02-16T07:37:15;3.97;;;2.70;;
29954;SDS011;68448;51.188;6.868;2024-02-16T07:39:42;5.17;;;2.83;;
29954;SDS011;68448;51.188;6.868;2024-02-16T07:42:10;5.57;;;2.47;;
29954;SDS011;68448;51.188;6.868;2024-02-16T07:44:37;9.13;;;3.00;;
29954;SDS011;68448;51.188;6.868;2024-02-16T07:47:04;4.57;;;2.70;;
29954;SDS011;68448;51.188;6.868;2024-02-16T07:49:32;6.43;;;2.67;;
29954;SDS011;68448;51.188;6.868;2024-02-16T07:52:00;11.13;;;2.93;;
29954;SDS011;68448;51.188;6.868;2024-02-16T07:54:27;4.70;;;2.80;;
29954;SDS011;68448;51.188;6.868;2024-02-16T07:56:54;4.63;;;2.83;;
29954;SDS011;68448;51.188;6.868;2024-02-16T07:59:23;8.90;;;2.77;;
29954;SDS011;68448;51.188;6.868;2024-02-16T08:01:50;4.77;;;3.60;;
29954;SDS011;68448;51.188;6.868;2024-02-16T08:04:18;3.73;;;2.73;;
29954;SDS011;68448;51.188;6.868;2024-02-16T08:06:46;6.63;;;2.60;;
29954;SDS011;68448;51.188;6.868;2024-02-16T08:09:13;4.03;;;3.00;;
29954;SDS011;68448;51.188;6.868;2024-02-16T08:11:40;2.63;;;2.17;;
29954;SDS011;68448;51.188;6.868;2024-02-16T08:14:08;6.00;;;2.40;;
29954;SDS011;68448;51.188;6.868;2024-02-16T08:16:35;2.60;;;2.40;;
29954;SDS011;68448;51.188;6.868;2024-02-16T08:19:02;4.47;;;2.80;;
29954;SDS011;68448;51.188;6.868;2024-02-16T08:21:29;7.33;;;2.87;;
29954;SDS011;68448;51.188;6.868;2024-02-16T08:23:58;6.93;;;3.17;;
29954;SDS011;68448;51.188;6.868;2024-02-16T08:26:25;4.40;;;2.33;;
29954;SDS011;68448;51.188;6.868;2024-02-16T08:28:52;5.63;;;3.27;;
29954;SDS011;68448;51.188;6.868;2024-02-16T08:31:19;4.60;;;2.87;;
29954;SDS011;68448;51.188;6.868;2024-02-16T08:33:46;3.87;;;2.60;;
29954;SDS011;68448;51.188;6.868;2024-02-16T08:36:14;4.97;;;2.90;;
29954;SDS011;68448;51.188;6.868;2024-02-16T08:38:41;4.80;;;2.70;;
29954;SDS011;68448;51.188;6.868;2024-02-16T08:41:10;3.80;;;2.60;;
29954;SDS011;68448;51.188;6.868;2024-02-16T08:43:37;5.33;;;3.10;;
29954;SDS011;68448;51.188;6.868;2024-02-16T08:46:04;3.30;;;2.50;;
29954;SDS011;68448;51.188;6.868;2024-02-16T08:48:31;3.90;;;2.70;;
29954;SDS011;68448;51.188;6.868;2024-02-16T08:50:58;7.50;;;2.87;;
29954;SDS011;68448;51.188;6.868;2024-02-16T08:53:26;5.40;;;3.27;;
29954;SDS011;68448;51.188;6.868;2024-02-16T08:55:53;2.73;;;1.93;;
29954;SDS011;68448;51.188;6.868;2024-02-16T08:58:21;4.90;;;3.20;;
29954;SDS011;68448;51.188;6.868;2024-02-16T09:00:48;6.60;;;2.97;;
29954;SDS011;68448;51.188;6.868;2024-02-16T09:03:16;6.30;;;2.90;;
29954;SDS011;68448;51.188;6.868;2024-02-16T09:05:43;4.17;;;3.03;;
29954;SDS011;68448;51.188;6.868;2024-02-16T09:08:10;6.90;;;2.83;;
29954;SDS011;68448;51.188;6.868;2024-02-16T09:10:37;9.10;;;3.20;;
29954;SDS011;68448;51.188;6.868;2024-02-16T09:13:04;3.60;;;2.50;;
29954;SDS011;68448;51.188;6.868;2024-02-16T09:15:33;5.40;;;2.97;;
29954;SDS011;68448;51.188;6.868;2024-02-16T09:18:00;4.70;;;3.37;;
29954;SDS011;68448;51.188;6.868;2024-02-16T09:20:27;4.60;;;3.03;;
29954;SDS011;68448;51.188;6.868;2024-02-16T09:22:55;6.93;;;3.33;;
29954;SDS011;68448;51.188;6.868;2024-02-16T09:25:22;5.30;;;3.23;;
29954;SDS011;68448;51.188;6.868;2024-02-16T09:27:49;7.67;;;3.80;;
29954;SDS011;68448;51.188;6.868;2024-02-16T09:30:16;12.43;;;4.00;;
29954;SDS011;68448;51.188;6.868;2024-02-16T09:32:45;4.20;;;2.83;;
29954;SDS011;68448;51.188;6.868;2024-02-16T09:35:13;3.60;;;2.90;;
29954;SDS011;68448;51.188;6.868;2024-02-16T09:37:40;6.90;;;3.30;;
29954;SDS011;68448;51.188;6.868;2024-02-16T09:40:08;7.80;;;3.83;;
29954;SDS011;68448;51.188;6.868;2024-02-16T09:42:35;11.00;;;3.90;;
29954;SDS011;68448;51.188;6.868;2024-02-16T09:45:04;4.37;;;2.83;;
29954;SDS011;68448;51.188;6.868;2024-02-16T09:47:33;5.20;;;3.77;;
29954;SDS011;68448;51.188;6.868;2024-02-16T09:50:02;12.80;;;3.87;;
29954;SDS011;68448;51.188;6.868;2024-02-16T09:52:29;9.03;;;3.87;;
29954;SDS011;68448;51.188;6.868;2024-02-16T09:54:56;4.70;;;3.27;;
29954;SDS011;68448;51.188;6.868;2024-02-16T09:57:23;9.17;;;4.07;;
29954;SDS011;68448;51.188;6.868;2024-02-16T09:59:51;8.53;;;3.53;;
29954;SDS011;68448;51.188;6.868;2024-02-16T10:02:18;5.07;;;3.07;;
29954;SDS011;68448;51.188;6.868;2024-02-16T10:04:46;7.30;;;5.17;;
29954;SDS011;68448;51.188;6.868;2024-02-16T10:07:14;6.90;;;3.20;;
29954;SDS011;68448;51.188;6.868;2024-02-16T10:09:42;6.47;;;3.13;;
29954;SDS011;68448;51.188;6.868;2024-02-16T10:12:09;6.97;;;2.97;;
29954;SDS011;68448;51.188;6.868;2024-02-16T10:14:37;13.00;;;3.33;;
29954;SDS011;68448;51.188;6.868;2024-02-16T10:17:04;7.83;;;3.83;;
29954;SDS011;68448;51.188;6.868;2024-02-16T10:19:32;7.90;;;3.00;;
29954;SDS011;68448;51.188;6.868;2024-02-16T10:22:05;6.33;;;2.90;;
29954;SDS011;68448;51.188;6.868;2024-02-16T10:24:33;5.93;;;3.03;;
29954;SDS011;68448;51.188;6.868;2024-02-16T10:27:01;5.87;;;3.63;;
29954;SDS011;68448;51.188;6.868;2024-02-16T10:29:28;5.27;;;3.90;;
29954;SDS011;68448;51.188;6.868;2024-02-16T10:31:56;5.53;;;3.33;;
29954;SDS011;68448;51.188;6.868;2024-02-16T10:34:23;11.40;;;3.90;;
29954;SDS011;68448;51.188;6.868;2024-02-16T10:36:51;7.23;;;3.27;;
29954;SDS011;68448;51.188;6.868;2024-02-16T10:39:18;6.90;;;3.10;;
29954;SDS011;68448;51.188;6.868;2024-02-16T10:41:47;5.83;;;4.00;;
29954;SDS011;68448;51.188;6.868;2024-02-16T10:44:14;5.10;;;3.27;;
29954;SDS011;68448;51.188;6.868;2024-02-16T10:46:42;18.27;;;3.60;;
29954;SDS011;68448;51.188;6.868;2024-02-16T10:49:09;6.40;;;3.57;;
29954;SDS011;68448;51.188;6.868;2024-02-16T10:51:36;7.20;;;4.17;;
29954;SDS011;68448;51.188;6.868;2024-02-16T10:54:04;3.03;;;2.73;;
29954;SDS011;68448;51.188;6.868;2024-02-16T10:56:32;7.97;;;3.77;;
29954;SDS011;68448;51.188;6.868;2024-02-16T10:59:01;6.70;;;3.40;;
29954;SDS011;68448;51.188;6.868;2024-02-16T11:01:31;5.30;;;3.43;;
29954;SDS011;68448;51.188;6.868;2024-02-16T11:04:03;8.10;;;3.50;;
29954;SDS011;68448;51.188;6.868;2024-02-16T11:06:30;5.00;;;3.50;;
29954;SDS011;68448;51.188;6.868;2024-02-16T11:09:01;12.53;;;4.10;;
29954;SDS011;68448;51.188;6.868;2024-02-16T11:11:28;8.00;;;3.30;;
29954;SDS011;68448;51.188;6.868;2024-02-16T11:13:55;5.90;;;3.40;;
29954;SDS011;68448;51.188;6.868;2024-02-16T11:16:23;5.53;;;3.87;;
29954;SDS011;68448;51.188;6.868;2024-02-16T11:18:57;7.53;;;3.40;;
29954;SDS011;68448;51.188;6.868;2024-02-16T11:21:24;6.67;;;3.97;;
29954;SDS011;68448;51.188;6.868;2024-02-16T11:23:51;7.40;;;3.10;;
29954;SDS011;68448;51.188;6.868;2024-02-16T11:26:18;8.33;;;3.63;;
29954;SDS011;68448;51.188;6.868;2024-02-16T11:28:46;7.60;;;3.27;;
29954;SDS011;68448;51.188;6.868;2024-02-16T11:31:13;6.03;;;3.87;;
29954;SDS011;68448;51.188;6.868;2024-02-16T11:33:44;5.10;;;3.10;;
29954;SDS011;68448;51.188;6.868;2024-02-16T11:36:12;8.53;;;3.70;;
29954;SDS011;68448;51.188;6.868;2024-02-16T11:38:39;6.17;;;3.27;;
29954;SDS011;68448;51.188;6.868;2024-02-16T11:41:06;7.50;;;3.67;;
29954;SDS011;68448;51.188;6.868;2024-02-16T11:43:34;4.97;;;3.93;;
29954;SDS011;68448;51.188;6.868;2024-02-16T11:46:10;10.20;;;4.13;;
29954;SDS011;68448;51.188;6.868;2024-02-16T11:48:37;8.43;;;3.80;;
29954;SDS011;68448;51.188;6.868;2024-02-16T11:51:06;5.80;;;3.50;;
29954;SDS011;68448;51.188;6.868;2024-02-16T11:53:33;5.33;;;3.50;;
29954;SDS011;68448;51.188;6.868;2024-02-16T11:56:01;7.43;;;3.40;;
29954;SDS011;68448;51.188;6.868;2024-02-16T11:58:28;6.63;;;4.20;;
29954;SDS011;68448;51.188;6.868;2024-02-16T12:00:56;9.87;;;4.63;;
29954;SDS011;68448;51.188;6.868;2024-02-16T12:03:28;6.10;;;4.00;;
29954;SDS011;68448;51.188;6.868;2024-02-16T12:05:55;8.20;;;4.47;;
29954;SDS011;68448;51.188;6.868;2024-02-16T12:08:31;6.23;;;3.63;;
29954;SDS011;68448;51.188;6.868;2024-02-16T12:10:58;8.50;;;4.10;;
29954;SDS011;68448;51.188;6.868;2024-02-16T12:13:26;13.30;;;4.60;;
29954;SDS011;68448;51.188;6.868;2024-02-16T12:15:54;7.17;;;4.10;;
29954;SDS011;68448;51.188;6.868;2024-02-16T12:18:21;6.50;;;4.50;;
29954;SDS011;68448;51.188;6.868;2024-02-16T12:20:58;11.10;;;4.50;;
29954;SDS011;68448;51.188;6.868;2024-02-16T12:23:27;9.77;;;4.47;;
29954;SDS011;68448;51.188;6.868;2024-02-16T12:25:54;7.77;;;4.00;;
29954;SDS011;68448;51.188;6.868;2024-02-16T12:28:23;10.83;;;4.47;;
29954;SDS011;68448;51.188;6.868;2024-02-16T12:30:50;8.40;;;4.00;;
29954;SDS011;68448;51.188;6.868;2024-02-16T12:33:18;7.43;;;4.00;;
29954;SDS011;68448;51.188;6.868;2024-02-16T12:35:45;10.60;;;4.90;;
29954;SDS011;68448;51.188;6.868;2024-02-16T12:38:12;9.03;;;4.73;;
29954;SDS011;68448;51.188;6.868;2024-02-16T12:40:41;8.47;;;4.70;;
29954;SDS011;68448;51.188;6.868;2024-02-16T12:43:08;9.50;;;5.03;;
29954;SDS011;68448;51.188;6.868;2024-02-16T12:45:35;8.20;;;5.10;;
29954;SDS011;68448;51.188;6.868;2024-02-16T12:48:02;12.53;;;4.70;;
29954;SDS011;68448;51.188;6.868;2024-02-16T12:50:30;7.00;;;4.00;;
29954;SDS011;68448;51.188;6.868;2024-02-16T12:52:57;8.30;;;4.83;;
29954;SDS011;68448;51.188;6.868;2024-02-16T12:55:30;10.70;;;5.77;;
29954;SDS011;68448;51.188;6.868;2024-02-16T12:57:58;14.13;;;5.90;;
29954;SDS011;68448;51.188;6.868;2024-02-16T13:00:25;10.70;;;5.33;;
29954;SDS011;68448;51.188;6.868;2024-02-16T13:02:53;10.20;;;5.83;;
29954;SDS011;68448;51.188;6.868;2024-02-16T13:05:20;10.33;;;5.30;;
29954;SDS011;68448;51.188;6.868;2024-02-16T13:07:48;21.53;;;6.50;;
29954;SDS011;68448;51.188;6.868;2024-02-16T13:10:15;9.93;;;5.60;;
29954;SDS011;68448;51.188;6.868;2024-02-16T13:12:42;11.43;;;5.87;;
29954;SDS011;68448;51.188;6.868;2024-02-16T13:15:11;7.70;;;5.70;;
29954;SDS011;68448;51.188;6.868;2024-02-16T13:17:53;10.17;;;5.60;;
29954;SDS011;68448;51.188;6.868;2024-02-16T13:20:21;10.20;;;5.60;;
29954;SDS011;68448;51.188;6.868;2024-02-16T13:22:49;8.17;;;6.03;;
29954;SDS011;68448;51.188;6.868;2024-02-16T13:25:17;10.27;;;5.93;;
29954;SDS011;68448;51.188;6.868;2024-02-16T13:27:44;13.93;;;5.67;;
29954;SDS011;68448;51.188;6.868;2024-02-16T13:30:14;7.77;;;4.47;;
29954;SDS011;68448;51.188;6.868;2024-02-16T13:32:41;10.50;;;6.40;;
29954;SDS011;68448;51.188;6.868;2024-02-16T13:35:08;8.13;;;6.00;;
29954;SDS011;68448;51.188;6.868;2024-02-16T13:37:36;9.43;;;5.30;;
29954;SDS011;68448;51.188;6.868;2024-02-16T13:40:03;8.50;;;5.60;;
29954;SDS011;68448;51.188;6.868;2024-02-16T13:42:30;16.43;;;5.80;;
29954;SDS011;68448;51.188;6.868;2024-02-16T13:44:58;9.70;;;6.07;;
29954;SDS011;68448;51.188;6.868;2024-02-16T13:47:26;8.67;;;6.07;;
29954;SDS011;68448;51.188;6.868;2024-02-16T13:49:53;11.60;;;5.20;;
29954;SDS011;68448;51.188;6.868;2024-02-16T13:52:20;8.60;;;5.93;;
29954;SDS011;68448;51.188;6.868;2024-02-16T13:54:47;11.17;;;6.80;;
29954;SDS011;68448;51.188;6.868;2024-02-16T13:57:15;10.77;;;5.83;;
29954;SDS011;68448;51.188;6.868;2024-02-16T13:59:42;10.77;;;6.40;;
29954;SDS011;68448;51.188;6.868;2024-02-16T14:02:09;10.70;;;6.87;;
29954;SDS011;68448;51.188;6.868;2024-02-16T14:04:38;7.40;;;5.80;;
29954;SDS011;68448;51.188;6.868;2024-02-16T14:07:07;14.57;;;7.10;;
29954;SDS011;68448;51.188;6.868;2024-02-16T14:09:34;10.27;;;7.00;;
29954;SDS011;68448;51.188;6.868;2024-02-16T14:12:02;9.40;;;6.77;;
29954;SDS011;68448;51.188;6.868;2024-02-16T14:14:29;12.83;;;7.97;;
29954;SDS011;68448;51.188;6.868;2024-02-16T14:17:03;10.87;;;7.50;;
29954;SDS011;68448;51.188;6.868;2024-02-16T14:19:31;15.40;;;7.63;;
29954;SDS011;68448;51.188;6.868;2024-02-16T14:22:00;11.37;;;7.27;;
29954;SDS011;68448;51.188;6.868;2024-02-16T14:24:27;9.33;;;6.63;;
29954;SDS011;68448;51.188;6.868;2024-02-16T14:26:54;9.20;;;6.90;;
29954;SDS011;68448;51.188;6.868;2024-02-16T14:29:22;8.07;;;6.83;;
29954;SDS011;68448;51.188;6.868;2024-02-16T14:31:49;13.63;;;7.50;;
29954;SDS011;68448;51.188;6.868;2024-02-16T14:34:16;10.60;;;7.23;;
29954;SDS011;68448;51.188;6.868;2024-02-16T14:36:44;11.27;;;6.67;;
29954;SDS011;68448;51.188;6.868;2024-02-16T14:39:13;11.20;;;6.87;;
29954;SDS011;68448;51.188;6.868;2024-02-16T14:41:40;18.00;;;8.37;;
29954;SDS011;68448;51.188;6.868;2024-02-16T14:44:07;14.27;;;8.03;;
29954;SDS011;68448;51.188;6.868;2024-02-16T14:46:34;11.63;;;9.47;;
29954;SDS011;68448;51.188;6.868;2024-02-16T14:49:01;13.20;;;9.10;;